createdAt,value
2023-04-19T00:02:16.944Z,15.89
2023-04-19T00:07:20.532Z,15.44
2023-04-19T00:12:23.584Z,15.07
2023-04-19T00:17:27.446Z,14.77
2023-04-19T00:22:30.635Z,15.34
2023-04-19T00:27:33.646Z,17.73
2023-04-19T00:32:36.792Z,18.46
2023-04-19T00:37:39.869Z,17.19
2023-04-19T00:42:42.834Z,16.37
2023-04-19T00:47:48.322Z,15.79
2023-04-19T00:52:53.770Z,15.34
2023-04-19T00:57:57.516Z,14.96
2023-04-19T01:03:01.270Z,15.47
2023-04-19T01:08:04.708Z,17.83
2023-04-19T01:13:07.697Z,18.51
2023-04-19T01:18:14.260Z,17.08
2023-04-19T01:23:19.078Z,16.14
2023-04-19T01:28:22.201Z,15.54
2023-04-19T01:33:26.410Z,14.99
2023-04-19T01:38:29.513Z,14.60
2023-04-19T01:43:32.561Z,15.13
2023-04-19T01:48:38.821Z,17.39
2023-04-19T01:53:41.818Z,18.10
2023-04-19T01:58:44.821Z,16.77
2023-04-19T02:03:48.129Z,15.93
2023-04-19T02:08:51.407Z,15.36
2023-04-19T02:13:54.507Z,14.91
2023-04-19T02:18:57.644Z,14.56
2023-04-19T02:24:01.394Z,14.26
2023-04-19T02:29:06.959Z,14.83
2023-04-19T02:34:10.428Z,17.28
2023-04-19T02:39:13.491Z,18.00
2023-04-19T02:44:16.968Z,16.67
2023-04-19T02:49:21.278Z,15.79
2023-04-19T02:54:24.315Z,15.16
2023-04-19T02:59:27.932Z,14.67
2023-04-19T03:04:32.074Z,14.29
2023-04-19T03:09:35.310Z,13.97
2023-04-19T03:14:39.940Z,14.57
2023-04-19T03:19:43.115Z,16.96
2023-04-19T03:24:47.069Z,17.71
2023-04-19T03:29:57.524Z,16.31
2023-04-19T03:35:01.554Z,15.44
2023-04-19T03:40:06.201Z,14.86
2023-04-19T03:45:10.430Z,14.38
2023-04-19T03:50:16.888Z,13.95
2023-04-19T03:55:22.190Z,13.59
2023-04-19T04:00:25.288Z,13.32
2023-04-19T04:05:31.764Z,14.08
2023-04-19T04:10:36.233Z,16.72
2023-04-19T04:15:39.495Z,17.41
2023-04-19T04:20:44.564Z,16.01
2023-04-19T04:25:47.913Z,15.08
2023-04-19T04:30:52.113Z,14.52
2023-04-19T04:35:56.680Z,14.10
2023-04-19T04:41:00.314Z,13.75
2023-04-19T04:46:04.313Z,13.48
2023-04-19T04:51:11.137Z,13.26
2023-04-19T04:56:15.163Z,14.06
2023-04-19T05:01:19.835Z,16.87
2023-04-19T05:06:23.866Z,17.64
2023-04-19T05:11:27.373Z,16.25
2023-04-19T05:16:31.454Z,15.40
2023-04-19T05:21:35.001Z,14.83
2023-04-19T05:26:39.269Z,14.41
2023-04-19T05:31:42.863Z,14.05
2023-04-19T05:36:52.821Z,13.76
2023-04-19T05:41:55.846Z,13.53
2023-04-19T05:46:58.874Z,13.31
2023-04-19T05:52:28.375Z,14.42
2023-04-19T05:57:33.956Z,17.19
2023-04-19T06:02:37.343Z,17.68
2023-04-19T06:07:44.021Z,16.32
2023-04-19T06:12:59.534Z,15.54
2023-04-19T06:18:02.587Z,15.01
2023-04-19T06:23:06.328Z,14.59
2023-04-19T06:28:09.384Z,14.25
2023-04-19T06:33:12.419Z,14.03
2023-04-19T06:38:15.354Z,13.84
2023-04-19T06:43:18.444Z,13.69
2023-04-19T06:48:21.499Z,13.56
2023-04-19T06:53:24.656Z,14.38
2023-04-19T06:58:28.734Z,16.97
2023-04-19T07:03:32.068Z,17.63
2023-04-19T07:08:48.663Z,16.28
2023-04-19T07:13:52.746Z,15.46
2023-04-19T07:18:56.017Z,14.94
2023-04-19T07:23:59.775Z,14.47
2023-04-19T07:29:03.354Z,14.08
2023-04-19T07:34:09.428Z,13.77
2023-04-19T07:39:13.366Z,13.48
2023-04-19T07:44:16.593Z,13.25
2023-04-19T07:49:34.045Z,13.08
2023-04-19T07:54:39.392Z,12.90
2023-04-19T07:59:42.496Z,12.77
2023-04-19T08:04:48.350Z,12.65
2023-04-19T08:09:51.865Z,12.57
2023-04-19T08:15:05.302Z,12.53
2023-04-19T08:20:21.825Z,12.53
2023-04-19T08:25:28.787Z,12.55
2023-04-19T08:30:36.110Z,12.58
2023-04-19T08:35:42.174Z,12.59
2023-04-19T08:40:52.758Z,12.55
2023-04-19T08:45:56.774Z,12.53
2023-04-19T08:51:05.587Z,12.53
2023-04-19T08:56:21.083Z,13.45
2023-04-19T09:01:36.052Z,16.33
2023-04-19T09:06:41.267Z,16.62
2023-04-19T09:11:44.882Z,15.38
2023-04-19T09:16:48.680Z,14.68
2023-04-19T09:21:52.015Z,14.19
2023-04-19T09:26:55.964Z,13.80
2023-04-19T10:27:46.981Z,16.58
2023-04-19T10:32:56.541Z,16.40
2023-04-19T10:38:08.891Z,15.23
2023-04-19T10:43:15.574Z,14.59
2023-04-19T10:48:38.144Z,14.15
2023-04-19T10:54:00.399Z,13.78
2023-04-19T10:59:11.620Z,13.48
2023-04-19T11:04:22.075Z,13.25
2023-04-19T11:09:34.959Z,13.10
2023-04-19T11:14:42.028Z,12.97
2023-04-19T11:19:59.004Z,12.89
2023-04-19T11:25:19.592Z,13.83
2023-04-19T11:30:31.087Z,16.55
2023-04-19T11:35:34.822Z,17.33
2023-04-19T11:40:38.123Z,16.17
2023-04-19T11:45:41.926Z,15.51
2023-04-19T11:50:47.912Z,15.09
2023-04-19T11:55:56.278Z,14.73
2023-04-19T12:01:06.762Z,14.42
2023-04-19T12:06:18.588Z,14.11
2023-04-19T12:11:26.614Z,13.84
2023-04-19T12:16:29.886Z,13.60
2023-04-19T12:25:30.691Z,13.24
2023-04-19T12:30:36.692Z,13.12
2023-04-19T12:35:41.174Z,13.95
2023-04-19T12:40:44.568Z,16.60
2023-04-19T12:45:47.590Z,17.41
2023-04-19T12:50:50.684Z,16.21
2023-04-19T12:55:53.711Z,15.46
2023-04-19T13:00:56.897Z,14.97
2023-04-19T13:05:59.909Z,14.57
2023-04-19T13:25:26.731Z,13.66
2023-04-19T13:30:30.691Z,13.57
2023-04-19T13:35:33.824Z,13.52
2023-04-19T13:40:36.810Z,13.50
2023-04-19T13:45:40.009Z,13.49
2023-04-19T13:50:43.315Z,13.51
2023-04-19T13:55:47.037Z,13.56
2023-04-19T14:00:51.290Z,13.61
2023-04-19T14:05:55.300Z,13.68
2023-04-19T14:10:59.175Z,13.72
2023-04-19T14:16:02.673Z,13.76
2023-04-19T14:21:05.934Z,13.85
2023-04-19T14:26:09.377Z,13.91
2023-04-19T14:31:21.906Z,13.94
2023-04-19T14:36:28.968Z,14.01
2023-04-19T14:41:39.622Z,14.06
2023-04-19T14:46:43.106Z,14.16
2023-04-19T14:51:46.297Z,14.21
2023-04-19T14:56:50.743Z,14.23
2023-04-19T15:01:54.089Z,14.27
2023-04-19T15:06:57.319Z,14.36
2023-04-19T15:12:01.894Z,14.40
2023-04-19T15:17:06.042Z,14.41
2023-04-19T15:22:09.592Z,14.33
2023-04-19T15:27:13.713Z,14.20
2023-04-19T15:32:16.893Z,14.07
2023-04-19T15:37:20.966Z,13.94
2023-04-19T15:42:24.372Z,13.81
2023-04-19T15:47:27.875Z,13.68
2023-04-19T15:52:32.428Z,13.56
2023-04-19T15:57:36.562Z,13.48
2023-04-19T16:02:41.306Z,14.30
2023-04-19T16:07:45.596Z,16.86
2023-04-19T16:12:51.373Z,17.61
2023-04-19T16:17:55.635Z,16.34
2023-04-19T16:23:03.151Z,15.56
2023-04-19T16:28:07.402Z,15.06
2023-04-19T16:33:12.180Z,14.64
2023-04-19T16:38:16.427Z,14.28
2023-04-19T16:43:21.516Z,13.99
2023-04-19T16:48:25.445Z,13.73
2023-04-19T16:53:31.422Z,13.53
2023-04-19T16:58:35.437Z,13.37
2023-04-19T17:03:39.383Z,13.25
2023-04-19T17:08:43.047Z,13.12
2023-04-19T17:13:46.900Z,13.03
2023-04-19T17:18:52.900Z,13.73
2023-04-19T17:23:57.006Z,16.43
2023-04-19T17:29:02.061Z,17.30
2023-04-19T17:34:06.460Z,16.00
2023-04-19T17:39:10.523Z,15.11
2023-04-19T17:44:14.725Z,14.55
2023-04-19T17:49:21.792Z,14.13
2023-04-19T17:54:25.409Z,13.79
2023-04-19T17:59:33.090Z,13.53
2023-04-19T18:04:38.744Z,13.36
2023-04-19T18:09:43.379Z,13.27
2023-04-19T18:14:47.347Z,13.13
2023-04-19T18:19:51.300Z,13.00
2023-04-19T18:24:55.172Z,13.77
2023-04-19T18:29:59.270Z,16.42
2023-04-19T18:35:09.665Z,17.15
2023-04-19T18:40:14.897Z,15.85
2023-04-19T18:45:19.122Z,15.06
2023-04-19T18:50:23.178Z,14.52
2023-04-19T18:55:26.999Z,14.10
2023-04-19T19:00:30.723Z,13.82
2023-04-19T19:05:33.918Z,13.56
2023-04-19T19:15:48.261Z,13.07
2023-04-19T19:20:52.995Z,12.89
2023-04-19T19:25:58.557Z,13.68
2023-04-19T19:31:02.688Z,16.27
2023-04-19T19:36:06.285Z,16.97
2023-04-19T19:41:51.502Z,15.62
2023-04-19T19:51:57.797Z,14.13
2023-04-19T20:02:10.417Z,13.23
2023-04-19T20:12:22.114Z,12.73
2023-04-19T20:17:25.696Z,12.53
2023-04-19T20:22:29.663Z,13.39
2023-04-19T20:27:34.126Z,16.01
2023-04-19T20:32:39.865Z,16.67
2023-04-19T20:37:45.011Z,15.37
2023-04-19T20:42:48.613Z,14.56
2023-04-19T20:48:00.014Z,14.03
2023-04-19T20:53:04.444Z,13.62
2023-04-19T20:58:08.502Z,13.28
2023-04-19T21:03:13.731Z,13.02
2023-04-19T21:08:19.277Z,12.78
2023-04-19T21:13:22.830Z,13.59
2023-04-19T21:18:30.096Z,16.20
2023-04-19T21:23:33.166Z,16.92
2023-04-19T21:28:38.203Z,15.56
2023-04-19T21:33:41.779Z,14.69
2023-04-19T21:38:45.317Z,14.12
2023-04-19T21:43:49.090Z,13.64
2023-04-19T21:48:55.673Z,13.25
2023-04-19T21:53:59.223Z,14.11
2023-04-19T21:59:02.450Z,16.48
2023-04-19T22:04:06.796Z,17.11
2023-04-19T22:09:14.620Z,15.69
2023-04-19T22:14:19.365Z,14.72
2023-04-19T22:19:27.338Z,14.06
2023-04-19T22:24:32.198Z,13.56
2023-04-19T22:29:36.617Z,13.23
2023-04-19T22:34:41.186Z,15.04
2023-04-19T22:39:44.645Z,17.06
2023-04-19T22:44:48.216Z,16.81
2023-04-19T22:49:52.569Z,15.38
2023-04-19T22:54:56.750Z,14.52
2023-04-19T23:00:02.698Z,13.90
2023-04-19T23:05:07.661Z,13.38
2023-04-19T23:10:13.397Z,12.95
2023-04-19T23:15:17.912Z,12.59
2023-04-19T23:20:22.040Z,12.32
2023-04-19T23:25:26.704Z,12.99
2023-04-19T23:30:32.740Z,15.48
2023-04-19T23:35:36.200Z,16.18
2023-04-19T23:40:40.951Z,14.81
2023-04-19T23:45:46.305Z,13.91
2023-04-19T23:50:49.912Z,13.32
2023-04-19T23:55:56.041Z,12.82
